createdAt,value
2022-08-04T00:00:59.622Z,75.74
2022-08-04T00:01:59.687Z,75.84
2022-08-04T00:02:59.663Z,75.74
2022-08-04T00:03:59.580Z,75.44
2022-08-04T00:04:59.566Z,76.14
2022-08-04T00:05:59.613Z,75.24
2022-08-04T00:06:59.562Z,75.78
2022-08-04T00:07:59.544Z,74.08
2022-08-04T00:08:59.529Z,74.04
2022-08-04T00:09:59.613Z,75.54
2022-08-04T00:10:59.499Z,75.34
2022-08-04T00:11:59.510Z,75.44
2022-08-04T00:12:59.509Z,74.54
2022-08-04T00:14:02.913Z,73.85
2022-08-04T00:14:59.459Z,72.98
2022-08-04T00:15:59.444Z,72.75
2022-08-04T00:16:59.508Z,73.74
2022-08-04T00:17:59.420Z,74.44
2022-08-04T00:18:59.410Z,75.24
2022-08-04T00:19:59.403Z,75.44
2022-08-04T00:20:59.414Z,75.14
2022-08-04T00:21:59.400Z,75.14
2022-08-04T00:22:59.363Z,75.24
2022-08-04T00:24:12.081Z,74.68
2022-08-04T00:25:00.391Z,75.44
2022-08-04T00:25:59.336Z,75.37
2022-08-04T00:26:59.343Z,74.15
2022-08-04T00:27:59.319Z,74.44
2022-08-04T00:28:59.332Z,75.04
2022-08-04T00:29:59.302Z,75.74
2022-08-04T00:30:59.301Z,75.64
2022-08-04T00:31:59.292Z,75.54
2022-08-04T00:32:59.279Z,75.84
2022-08-04T00:33:59.251Z,76.04
2022-08-04T00:34:59.305Z,75.64
2022-08-04T00:35:59.216Z,76.17
2022-08-04T00:36:59.273Z,76.37
2022-08-04T00:37:59.197Z,74.98
2022-08-04T00:38:59.245Z,76.27
2022-08-04T00:39:59.178Z,76.77
2022-08-04T00:40:59.260Z,76.17
2022-08-04T00:41:59.161Z,76.17
2022-08-04T00:42:59.677Z,75.67
2022-08-04T00:43:59.136Z,75.27
2022-08-04T00:44:59.127Z,75.18
2022-08-04T00:46:09.509Z,75.57
2022-08-04T00:47:00.166Z,76.47
2022-08-04T00:47:59.103Z,76.57
2022-08-04T00:48:59.073Z,76.57
2022-08-04T00:49:59.066Z,76.97
2022-08-04T00:50:59.078Z,75.78
2022-08-04T00:52:30.771Z,75.67
2022-08-04T00:53:00.052Z,75.57
2022-08-04T00:53:59.032Z,75.78
2022-08-04T00:54:59.047Z,75.78
2022-08-04T00:55:59.098Z,76.17
2022-08-04T00:56:59.003Z,75.97
2022-08-04T00:57:58.982Z,75.67
2022-08-04T00:58:59.090Z,75.48
2022-08-04T00:59:58.949Z,75.37
2022-08-04T01:00:59.026Z,76.07
2022-08-04T01:01:58.935Z,75.37
2022-08-04T01:02:58.923Z,74.88
2022-08-04T01:03:58.907Z,75.27
2022-08-04T01:04:58.928Z,75.67
2022-08-04T01:05:58.891Z,75.87
2022-08-04T01:06:58.874Z,75.48
2022-08-04T01:07:58.931Z,75.87
2022-08-04T01:08:58.852Z,75.57
2022-08-04T01:09:58.871Z,75.78
2022-08-04T01:10:58.826Z,76.07
2022-08-04T01:11:58.822Z,76.21
2022-08-04T01:12:58.809Z,76.51
2022-08-04T01:13:58.796Z,76.41
2022-08-04T01:14:58.780Z,75.11
2022-08-04T01:16:00.624Z,75.11
2022-08-04T01:16:58.757Z,75.81
2022-08-04T01:17:58.750Z,75.61
2022-08-04T01:18:58.735Z,75.61
2022-08-04T01:19:58.725Z,75.81
2022-08-04T01:20:58.723Z,76.41
2022-08-04T01:21:58.798Z,76.51
2022-08-04T01:22:58.695Z,76.21
2022-08-04T01:23:58.683Z,75.91
2022-08-04T01:24:58.674Z,76.31
2022-08-04T01:25:58.674Z,76.21
2022-08-04T01:26:58.776Z,75.61
2022-08-04T01:27:58.639Z,76.31
2022-08-04T01:28:58.678Z,75.81
2022-08-04T01:29:58.614Z,76.11
2022-08-04T01:30:58.600Z,76.84
2022-08-04T01:31:58.634Z,77.21
2022-08-04T01:32:58.618Z,77.04
2022-08-04T01:34:03.717Z,75.21
2022-08-04T01:34:59.561Z,75.25
2022-08-04T01:35:58.638Z,75.81
2022-08-04T01:36:58.580Z,76.15
2022-08-04T01:37:58.550Z,75.95
2022-08-04T01:38:58.549Z,75.85
2022-08-04T01:39:58.491Z,76.15
2022-08-04T01:40:58.549Z,75.15
2022-08-04T01:41:58.811Z,75.35
2022-08-04T01:42:58.481Z,75.35
2022-08-04T01:43:58.527Z,75.35
2022-08-04T01:44:58.462Z,75.65
2022-08-04T01:45:58.429Z,75.45
2022-08-04T01:46:58.423Z,75.25
2022-08-04T01:47:58.427Z,75.55
2022-08-04T01:48:58.401Z,75.45
2022-08-04T01:49:58.381Z,75.05
2022-08-04T01:50:58.455Z,75.25
2022-08-04T01:51:58.363Z,75.05
2022-08-04T01:52:58.362Z,75.55
2022-08-04T01:53:58.346Z,75.35
2022-08-04T01:54:58.331Z,75.15
2022-08-04T01:55:58.311Z,75.74
2022-08-04T01:56:58.316Z,75.95
2022-08-04T01:57:58.311Z,75.45
2022-08-04T01:58:58.283Z,75.68
2022-08-04T01:59:58.275Z,75.89
2022-08-04T02:00:58.370Z,76.08
2022-08-04T02:01:58.419Z,76.25
2022-08-04T02:02:58.263Z,76.48
2022-08-04T02:04:18.242Z,76.68
2022-08-04T02:04:59.271Z,76.78
2022-08-04T02:06:03.058Z,76.68
2022-08-04T02:06:59.193Z,77.28
2022-08-04T02:07:58.171Z,77.18
2022-08-04T02:08:58.179Z,76.78
2022-08-04T02:09:58.155Z,76.68
2022-08-04T02:10:58.138Z,76.48
2022-08-04T02:11:58.208Z,77.08
2022-08-04T02:12:58.124Z,77.48
2022-08-04T02:13:58.129Z,77.88
2022-08-04T02:14:58.105Z,77.51
2022-08-04T02:15:58.089Z,77.72
2022-08-04T02:16:58.072Z,77.22
2022-08-04T02:17:58.063Z,77.62
2022-08-04T02:18:58.085Z,77.51
2022-08-04T02:19:58.037Z,77.42
2022-08-04T02:20:58.105Z,77.42
2022-08-04T02:21:58.022Z,77.62
2022-08-04T02:22:58.008Z,77.62
2022-08-04T02:23:58.011Z,76.72
2022-08-04T02:24:57.991Z,77.42
2022-08-04T02:25:57.981Z,77.42
2022-08-04T02:26:57.979Z,77.72
2022-08-04T02:27:59.704Z,77.22
2022-08-04T02:28:58.052Z,77.32
2022-08-04T02:29:57.926Z,76.62
2022-08-04T02:30:57.913Z,76.82
2022-08-04T02:31:57.925Z,76.72
2022-08-04T02:32:57.895Z,76.92
2022-08-04T02:33:57.898Z,75.82
2022-08-04T02:34:57.875Z,76.82
2022-08-04T02:35:57.855Z,76.95
2022-08-04T02:36:57.852Z,76.62
2022-08-04T02:37:57.875Z,77.32
2022-08-04T02:38:57.945Z,77.15
2022-08-04T02:39:57.813Z,77.02
2022-08-04T02:40:58.864Z,77.62
2022-08-04T02:41:57.795Z,77.56
2022-08-04T02:42:57.775Z,77.51
2022-08-04T02:43:57.816Z,77.51
2022-08-04T02:44:57.821Z,77.75
2022-08-04T02:45:57.767Z,78.22
2022-08-04T02:46:57.750Z,77.32
2022-08-04T02:48:29.567Z,78.42
2022-08-04T02:48:58.750Z,78.42
2022-08-04T02:49:57.699Z,78.55
2022-08-04T02:50:57.697Z,78.36
2022-08-04T02:51:57.697Z,78.25
2022-08-04T02:52:57.663Z,78.55
2022-08-04T02:53:57.661Z,78.36
2022-08-04T02:54:57.657Z,77.45
2022-08-04T02:55:57.634Z,78.36
2022-08-04T02:56:57.612Z,78.55
2022-08-04T02:57:57.623Z,78.55
2022-08-04T02:58:57.629Z,78.36
2022-08-04T02:59:57.584Z,77.86
2022-08-04T03:00:57.665Z,78.25
2022-08-04T03:01:58.405Z,78.55
2022-08-04T03:02:57.571Z,78.05
2022-08-04T03:03:57.558Z,78.16
2022-08-04T03:04:57.523Z,78.05
2022-08-04T03:06:00.647Z,77.79
2022-08-04T03:06:57.505Z,77.09
2022-08-04T03:07:57.528Z,77.56
2022-08-04T03:08:57.490Z,77.89
2022-08-04T03:09:57.472Z,77.95
2022-08-04T03:10:57.455Z,78.39
2022-08-04T03:11:57.538Z,77.99
2022-08-04T03:12:58.680Z,78.19
2022-08-04T03:13:57.431Z,78.09
2022-08-04T03:14:57.419Z,78.59
2022-08-04T03:15:57.399Z,78.29
2022-08-04T03:16:57.409Z,78.69
2022-08-04T03:17:57.398Z,78.79
2022-08-04T03:18:57.422Z,78.89
2022-08-04T03:19:57.366Z,78.89
2022-08-04T03:20:57.367Z,78.99
2022-08-04T03:21:57.344Z,78.79
2022-08-04T03:23:12.581Z,78.59
2022-08-04T03:23:58.313Z,78.63
2022-08-04T03:24:57.295Z,78.29
2022-08-04T03:25:57.785Z,78.29
2022-08-04T03:26:57.273Z,78.09
2022-08-04T03:27:57.278Z,77.89
2022-08-04T03:28:57.253Z,78.19
2022-08-04T03:29:57.239Z,77.83
2022-08-04T03:30:57.232Z,78.23
2022-08-04T03:31:57.272Z,78.63
2022-08-04T03:32:57.221Z,77.99
2022-08-04T03:33:57.200Z,78.43
2022-08-04T03:34:57.188Z,78.79
2022-08-04T03:35:57.183Z,78.93
2022-08-04T03:36:57.171Z,78.33
2022-08-04T03:37:57.259Z,78.99
2022-08-04T03:38:57.584Z,78.93
2022-08-04T03:39:57.140Z,78.83
2022-08-04T03:40:57.121Z,78.93
2022-08-04T03:42:04.206Z,78.93
2022-08-04T03:42:58.114Z,78.63
2022-08-04T03:43:59.747Z,78.93
2022-08-04T03:44:57.093Z,79.33
2022-08-04T03:45:57.073Z,78.83
2022-08-04T03:46:57.048Z,78.83
2022-08-04T03:47:57.049Z,78.73
2022-08-04T03:48:57.035Z,78.83
2022-08-04T03:49:57.016Z,79.03
2022-08-04T03:50:57.015Z,79.93
2022-08-04T03:51:56.994Z,79.33
2022-08-04T03:52:56.993Z,79.33
2022-08-04T03:53:57.035Z,79.63
2022-08-04T03:54:56.957Z,79.23
2022-08-04T03:55:56.949Z,79.43
2022-08-04T03:56:56.940Z,79.83
2022-08-04T03:57:56.934Z,77.93
2022-08-04T03:58:56.910Z,78.03
2022-08-04T03:59:56.954Z,77.73
2022-08-04T04:00:56.891Z,76.73
2022-08-04T04:02:02.700Z,75.69
2022-08-04T04:02:57.953Z,76.49
2022-08-04T04:03:56.864Z,76.49
2022-08-04T04:04:56.843Z,74.49
2022-08-04T04:05:59.997Z,73.79
2022-08-04T04:06:57.831Z,74.19
2022-08-04T04:08:01.318Z,73.69
2022-08-04T04:08:56.810Z,74.89
2022-08-04T04:10:01.221Z,75.46
2022-08-04T04:10:57.776Z,75.26
2022-08-04T04:11:57.813Z,75.16
2022-08-04T04:12:56.781Z,75.85
2022-08-04T04:13:56.763Z,76.26
2022-08-04T04:14:56.731Z,75.65
2022-08-04T04:15:56.737Z,76.26
2022-08-04T04:16:56.714Z,76.35
2022-08-04T04:17:56.696Z,75.59
2022-08-04T04:18:56.706Z,75.89
2022-08-04T04:19:58.297Z,75.56
2022-08-04T04:20:56.731Z,76.45
2022-08-04T04:21:56.660Z,76.45
2022-08-04T04:22:56.647Z,73.89
2022-08-04T04:23:56.648Z,75.29
2022-08-04T04:24:56.624Z,76.09
2022-08-04T04:25:56.697Z,75.89
2022-08-04T04:26:56.593Z,72.56
2022-08-04T04:27:56.585Z,73.56
2022-08-04T04:29:01.575Z,73.99
2022-08-04T04:29:57.562Z,73.75
2022-08-04T04:30:56.546Z,73.86
2022-08-04T04:31:56.546Z,73.56
2022-08-04T04:32:56.526Z,75.26
2022-08-04T04:33:56.636Z,74.55
2022-08-04T04:34:56.505Z,73.96
2022-08-04T04:35:56.498Z,73.25
2022-08-04T04:36:56.483Z,71.46
2022-08-04T04:37:56.477Z,72.26
2022-08-04T04:38:56.561Z,70.86
2022-08-04T04:39:56.504Z,70.46
2022-08-04T04:40:56.430Z,69.02
2022-08-04T04:41:56.440Z,68.52
2022-08-04T04:42:56.424Z,68.63
2022-08-04T04:43:56.420Z,68.63
2022-08-04T04:44:56.410Z,68.43
2022-08-04T04:45:56.447Z,69.59
2022-08-04T04:46:56.366Z,69.79
2022-08-04T04:48:07.632Z,70.49
2022-08-04T04:48:57.371Z,70.79
2022-08-04T04:49:56.335Z,69.39
2022-08-04T04:50:56.330Z,68.40
2022-08-04T04:51:56.319Z,68.10
2022-08-04T04:52:56.301Z,67.80
2022-08-04T04:54:00.453Z,67.40
2022-08-04T04:54:56.284Z,67.19
2022-08-04T04:55:56.263Z,67.19
2022-08-04T04:56:56.259Z,67.07
2022-08-04T04:57:56.255Z,68.16
2022-08-04T04:58:56.247Z,70.46
2022-08-04T04:59:56.228Z,70.46
2022-08-04T05:00:56.209Z,70.32
2022-08-04T05:01:56.201Z,68.86
2022-08-04T05:03:00.369Z,69.66
2022-08-04T05:03:56.187Z,69.06
2022-08-04T05:04:56.169Z,68.16
2022-08-04T05:05:56.164Z,66.96
2022-08-04T05:06:56.141Z,67.26
2022-08-04T05:07:56.137Z,67.07
2022-08-04T05:08:56.141Z,66.63
2022-08-04T05:09:56.108Z,67.63
2022-08-04T05:10:56.102Z,66.83
2022-08-04T05:11:56.134Z,67.73
2022-08-04T05:14:32.022Z,67.03
2022-08-04T05:14:36.356Z,66.93
2022-08-04T05:14:57.047Z,66.73
2022-08-04T05:15:56.044Z,66.43
2022-08-04T05:16:56.027Z,67.20
2022-08-04T05:17:56.061Z,67.00
2022-08-04T05:18:56.011Z,66.90
2022-08-04T05:19:56.010Z,65.80
2022-08-04T05:20:56.004Z,67.10
2022-08-04T05:21:55.965Z,67.10
2022-08-04T05:22:55.966Z,65.70
2022-08-04T05:23:55.948Z,66.00
2022-08-04T05:24:56.030Z,65.70
2022-08-04T05:25:59.832Z,66.90
2022-08-04T05:26:55.912Z,67.70
2022-08-04T05:27:55.938Z,66.20
2022-08-04T05:28:55.890Z,65.41
2022-08-04T05:29:55.893Z,65.70
2022-08-04T05:30:55.897Z,65.57
2022-08-04T05:31:55.874Z,65.70
2022-08-04T05:32:57.387Z,65.50
2022-08-04T05:33:55.846Z,65.57
2022-08-04T05:34:55.835Z,65.57
2022-08-04T05:36:20.579Z,65.27
2022-08-04T05:36:56.861Z,65.47
2022-08-04T05:38:01.203Z,65.08
2022-08-04T05:38:56.795Z,64.94
2022-08-04T05:39:55.786Z,64.54
2022-08-04T05:40:55.754Z,64.75
2022-08-04T05:42:04.650Z,65.34
2022-08-04T05:42:56.735Z,66.44
2022-08-04T05:43:55.719Z,68.23
2022-08-04T05:44:55.794Z,66.83
2022-08-04T05:45:55.704Z,65.64
2022-08-04T05:46:55.691Z,64.75
2022-08-04T05:47:55.673Z,63.45
2022-08-04T05:48:55.657Z,63.85
2022-08-04T05:50:02.081Z,63.85
2022-08-04T05:51:00.777Z,63.85
2022-08-04T05:51:55.628Z,64.25
2022-08-04T05:52:59.901Z,64.22
2022-08-04T05:53:56.613Z,63.72
2022-08-04T05:54:55.614Z,63.52
2022-08-04T05:55:58.447Z,64.01
2022-08-04T05:56:55.605Z,65.51
2022-08-04T05:57:55.835Z,63.72
2022-08-04T05:58:55.547Z,65.51
2022-08-04T05:59:55.565Z,65.78
2022-08-04T06:00:55.521Z,67.07
2022-08-04T06:01:57.257Z,64.58
2022-08-04T06:02:55.556Z,65.21
2022-08-04T06:03:55.495Z,63.92
2022-08-04T06:04:55.492Z,65.38
2022-08-04T06:05:55.474Z,65.58
2022-08-04T06:06:55.467Z,63.69
2022-08-04T06:08:07.736Z,63.29
2022-08-04T06:08:56.451Z,62.79
2022-08-04T06:09:55.453Z,62.79
2022-08-04T06:10:55.420Z,61.90
2022-08-04T06:12:01.937Z,61.96
2022-08-04T06:12:56.445Z,61.37
2022-08-04T06:13:55.388Z,61.27
2022-08-04T06:14:59.704Z,61.74
2022-08-04T06:15:55.352Z,61.54
2022-08-04T06:16:55.344Z,61.64
2022-08-04T06:19:59.163Z,61.54
2022-08-04T06:20:00.625Z,61.24
2022-08-04T06:20:17.886Z,62.01
2022-08-04T06:20:56.305Z,63.60
2022-08-04T06:21:55.294Z,64.00
2022-08-04T06:22:55.304Z,64.98
2022-08-04T06:24:02.350Z,66.78
2022-08-04T06:24:56.278Z,64.72
2022-08-04T06:25:55.252Z,62.83
2022-08-04T06:26:55.232Z,63.79
2022-08-04T06:27:55.221Z,62.83
2022-08-04T06:28:55.207Z,61.80
2022-08-04T06:29:55.233Z,61.91
2022-08-04T06:30:55.202Z,62.70
2022-08-04T06:32:27.107Z,63.40
2022-08-04T06:33:03.947Z,63.49
2022-08-04T06:33:56.158Z,61.21
2022-08-04T06:34:55.148Z,61.61
2022-08-04T06:35:55.158Z,61.01
2022-08-04T06:36:55.186Z,60.58
2022-08-04T06:38:00.397Z,60.69
2022-08-04T06:38:58.819Z,62.47
2022-08-04T06:39:55.087Z,63.37
2022-08-04T06:40:55.087Z,63.96
2022-08-04T06:42:16.953Z,63.64
2022-08-04T06:42:56.064Z,64.92
2022-08-04T06:43:55.047Z,62.64
2022-08-04T06:44:55.032Z,62.24
2022-08-04T06:45:55.135Z,62.67
2022-08-04T06:46:55.009Z,63.43
2022-08-04T06:47:55.023Z,63.64
2022-08-04T06:48:54.985Z,63.46
2022-08-04T06:51:25.532Z,65.22
2022-08-04T06:51:26.621Z,65.92
2022-08-04T06:51:55.978Z,65.55
2022-08-04T06:52:54.947Z,66.81
2022-08-04T06:53:54.944Z,67.01
2022-08-04T06:54:54.916Z,64.95
2022-08-04T06:55:55.007Z,63.27
2022-08-04T06:56:54.900Z,62.27
2022-08-04T06:57:58.385Z,61.28
2022-08-04T06:58:55.879Z,61.75
2022-08-04T06:59:54.862Z,61.55
2022-08-04T07:00:54.870Z,62.05
2022-08-04T07:01:54.886Z,62.54
2022-08-04T07:02:54.876Z,62.34
2022-08-04T07:03:54.822Z,63.24
2022-08-04T07:04:54.817Z,63.70
2022-08-04T07:05:54.809Z,64.43
2022-08-04T07:06:54.791Z,64.23
2022-08-04T07:07:58.219Z,63.54
2022-08-04T07:08:54.765Z,62.74
2022-08-04T07:09:54.762Z,61.12
2022-08-04T07:10:54.753Z,60.53
2022-08-04T07:11:54.772Z,60.83
2022-08-04T07:12:54.728Z,61.52
2022-08-04T07:13:54.706Z,61.91
2022-08-04T07:14:54.708Z,62.61
2022-08-04T07:15:54.711Z,62.81
2022-08-04T07:16:54.674Z,62.41
2022-08-04T07:17:54.664Z,63.51
2022-08-04T07:18:54.719Z,63.67
2022-08-04T07:19:54.633Z,62.48
2022-08-04T07:20:54.649Z,60.40
2022-08-04T07:22:18.879Z,60.70
2022-08-04T07:22:55.618Z,60.70
2022-08-04T07:23:54.591Z,61.10
2022-08-04T07:24:54.588Z,58.69
2022-08-04T07:25:59.422Z,59.28
2022-08-04T07:26:55.575Z,57.89
2022-08-04T07:27:54.564Z,57.79
2022-08-04T07:28:54.562Z,57.69
2022-08-04T07:29:54.523Z,58.36
2022-08-04T07:30:54.553Z,56.57
2022-08-04T07:31:54.637Z,55.85
2022-08-04T07:32:54.495Z,55.96
2022-08-04T07:34:21.334Z,55.13
2022-08-04T07:34:55.541Z,56.32
2022-08-04T07:36:05.928Z,56.23
2022-08-04T07:36:56.093Z,55.80
2022-08-04T07:37:54.441Z,55.90
2022-08-04T07:38:54.556Z,56.89
2022-08-04T07:39:54.464Z,58.47
2022-08-04T07:40:54.420Z,57.75
2022-08-04T07:41:54.401Z,56.76
2022-08-04T07:42:54.385Z,55.77
2022-08-04T07:43:54.429Z,54.10
2022-08-04T07:44:54.371Z,54.29
2022-08-04T07:45:54.371Z,54.06
2022-08-04T07:46:54.345Z,53.97
2022-08-04T07:48:05.296Z,53.97
2022-08-04T07:48:55.311Z,54.04
2022-08-04T07:49:57.714Z,54.63
2022-08-04T07:50:54.314Z,55.72
2022-08-04T07:51:54.292Z,55.62
2022-08-04T07:53:15.364Z,55.92
2022-08-04T07:53:56.442Z,56.71
2022-08-04T07:54:54.249Z,55.72
2022-08-04T07:55:54.259Z,54.73
2022-08-04T07:56:54.226Z,55.89
2022-08-04T07:57:54.216Z,56.48
2022-08-04T07:58:54.208Z,55.99
2022-08-04T07:59:54.246Z,55.60
2022-08-04T08:00:54.201Z,56.78
2022-08-04T08:01:54.175Z,55.99
2022-08-04T08:02:54.161Z,56.09
2022-08-04T08:03:54.251Z,55.79
2022-08-04T08:04:54.145Z,57.57
2022-08-04T08:06:17.600Z,53.12
2022-08-04T08:06:55.109Z,52.51
2022-08-04T08:07:54.944Z,53.27
2022-08-04T08:08:54.094Z,52.98
2022-08-04T08:09:54.080Z,52.36
2022-08-04T08:10:54.198Z,51.47
2022-08-04T08:12:36.859Z,51.77
2022-08-04T08:12:55.061Z,51.05
2022-08-04T08:13:54.047Z,51.45
2022-08-04T08:14:54.036Z,52.40
2022-08-04T08:15:54.035Z,50.61
2022-08-04T08:16:54.005Z,50.31
2022-08-04T08:17:57.819Z,51.07
2022-08-04T08:18:54.999Z,50.85
2022-08-04T08:19:53.971Z,50.95
2022-08-04T08:20:53.990Z,49.06
2022-08-04T08:21:59.162Z,49.04
2022-08-04T08:22:54.938Z,48.91
2022-08-04T08:23:54.054Z,48.77
2022-08-04T08:24:53.917Z,46.69
2022-08-04T08:25:53.935Z,45.86
2022-08-04T08:26:53.889Z,46.89
2022-08-04T08:27:55.678Z,45.18
2022-08-04T08:28:53.876Z,45.45
2022-08-04T08:29:53.857Z,44.04
2022-08-04T08:30:53.873Z,42.94
2022-08-04T08:31:56.164Z,41.66
2022-08-04T08:32:53.833Z,43.76
2022-08-04T08:33:53.886Z,43.25
2022-08-04T08:34:53.818Z,44.32
2022-08-04T08:35:54.921Z,43.23
2022-08-04T08:36:53.824Z,43.33
2022-08-04T08:37:53.775Z,41.06
2022-08-04T08:38:53.806Z,39.90
2022-08-04T08:39:53.754Z,41.65
2022-08-04T08:40:53.758Z,40.97
2022-08-04T08:41:53.736Z,40.00
2022-08-04T08:42:53.717Z,41.63
2022-08-04T08:44:05.152Z,39.00
2022-08-04T08:44:57.786Z,40.27
2022-08-04T08:45:53.702Z,38.70
2022-08-04T08:46:53.689Z,38.48
2022-08-04T08:48:05.146Z,38.96
2022-08-04T08:48:54.652Z,37.59
2022-08-04T08:50:02.439Z,37.76
2022-08-04T08:50:54.645Z,39.20
2022-08-04T08:51:53.644Z,37.73
2022-08-04T08:52:56.186Z,36.46
2022-08-04T08:53:54.590Z,35.57
2022-08-04T08:54:53.588Z,35.96
2022-08-04T08:55:53.652Z,37.69
2022-08-04T08:56:53.565Z,33.81
2022-08-04T08:58:00.175Z,34.86
2022-08-04T08:58:54.580Z,36.22
2022-08-04T08:59:53.547Z,35.54
2022-08-04T09:00:53.534Z,34.07
2022-08-04T09:01:53.641Z,34.55
2022-08-04T09:03:04.126Z,35.02
2022-08-04T09:03:54.575Z,36.96
2022-08-04T09:04:53.497Z,35.78
2022-08-04T09:05:53.478Z,35.00
2022-08-04T09:06:53.474Z,34.62
2022-08-04T09:07:53.461Z,34.12
2022-08-04T09:08:53.438Z,35.36
2022-08-04T09:09:53.506Z,33.98
2022-08-04T09:10:53.461Z,32.43
2022-08-04T09:11:53.400Z,33.76
2022-08-04T09:12:53.399Z,30.96
2022-08-04T09:13:53.384Z,33.65
2022-08-04T09:14:53.374Z,30.93
2022-08-04T09:15:54.367Z,33.53
2022-08-04T09:16:53.367Z,31.40
2022-08-04T09:17:53.336Z,29.95
2022-08-04T09:18:53.328Z,29.65
2022-08-04T09:19:53.324Z,29.74
2022-08-04T09:20:53.338Z,30.22
2022-08-04T09:21:53.306Z,31.08
2022-08-04T09:22:53.307Z,35.22
2022-08-04T09:23:53.274Z,35.60
2022-08-04T09:24:53.268Z,37.22
2022-08-04T09:25:53.261Z,29.62
2022-08-04T09:26:59.737Z,28.93
2022-08-04T09:27:54.241Z,28.84
2022-08-04T09:28:54.686Z,30.65
2022-08-04T09:29:53.219Z,31.51
2022-08-04T09:30:53.207Z,29.28
2022-08-04T09:32:06.951Z,27.45
2022-08-04T09:32:54.188Z,28.04
2022-08-04T09:33:53.181Z,29.28
2022-08-04T09:35:03.449Z,28.89
2022-08-04T09:35:54.179Z,31.38
2022-08-04T09:36:53.171Z,31.20
2022-08-04T09:37:53.150Z,31.37
2022-08-04T09:38:53.288Z,33.47
2022-08-04T09:39:53.140Z,34.71
2022-08-04T09:40:56.878Z,30.68
2022-08-04T09:41:53.128Z,32.98
2022-08-04T09:42:53.122Z,27.89
2022-08-04T09:44:43.218Z,27.59
2022-08-04T09:44:57.633Z,27.68
2022-08-04T09:45:54.110Z,32.47
2022-08-04T09:46:53.073Z,26.52
2022-08-04T09:47:53.051Z,26.53
2022-08-04T09:48:53.047Z,33.80
2022-08-04T09:49:53.035Z,26.04
2022-08-04T09:50:53.071Z,26.33
2022-08-04T09:51:57.261Z,27.27
2022-08-04T09:52:54.047Z,25.07
2022-08-04T09:53:53.000Z,25.55
2022-08-04T09:54:52.995Z,26.60
2022-08-04T09:55:53.545Z,26.68
2022-08-04T09:56:52.987Z,26.59
2022-08-04T09:57:52.957Z,28.98
2022-08-04T09:58:52.984Z,25.24
2022-08-04T09:59:52.940Z,26.48
2022-08-04T10:00:52.945Z,25.25
2022-08-04T10:01:59.014Z,25.75
2022-08-04T10:02:54.030Z,26.33
2022-08-04T10:03:52.901Z,27.58
2022-08-04T10:04:52.955Z,30.16
2022-08-04T10:05:52.889Z,25.37
2022-08-04T10:06:52.885Z,25.67
2022-08-04T10:07:59.644Z,26.07
2022-08-04T10:08:56.979Z,26.94
2022-08-04T10:09:52.852Z,27.04
2022-08-04T10:10:52.853Z,26.46
2022-08-04T10:11:55.359Z,26.27
2022-08-04T10:12:52.819Z,26.94
2022-08-04T10:13:52.830Z,25.87
2022-08-04T10:14:52.811Z,26.35
2022-08-04T10:15:52.797Z,26.15
2022-08-04T10:16:52.836Z,26.06
2022-08-04T10:17:52.876Z,25.97
2022-08-04T10:18:52.776Z,27.41
2022-08-04T10:19:52.759Z,27.89
2022-08-04T10:20:57.385Z,27.59
2022-08-04T10:21:59.691Z,25.57
2022-08-04T10:23:10.562Z,25.48
2022-08-04T10:23:56.076Z,26.71
2022-08-04T10:24:53.714Z,26.72
2022-08-04T10:26:06.195Z,26.35
2022-08-04T10:26:57.357Z,30.57
2022-08-04T10:27:52.726Z,27.03
2022-08-04T10:28:52.675Z,31.42
2022-08-04T10:29:52.665Z,28.26
2022-08-04T10:30:52.653Z,27.68
2022-08-04T10:31:52.666Z,28.15
2022-08-04T10:32:52.638Z,28.72
2022-08-04T10:33:52.643Z,26.12
2022-08-04T10:34:52.613Z,27.95
2022-08-04T10:35:52.611Z,26.62
2022-08-04T10:36:52.615Z,26.43
2022-08-04T10:37:54.628Z,28.94
2022-08-04T10:38:53.665Z,26.45
2022-08-04T10:39:52.679Z,26.56
2022-08-04T10:40:53.571Z,29.82
2022-08-04T10:41:52.562Z,27.25
2022-08-04T10:42:52.538Z,26.03
2022-08-04T10:43:52.529Z,26.62
2022-08-04T10:44:57.305Z,27.33
2022-08-04T10:45:56.074Z,27.75
2022-08-04T10:46:52.525Z,29.31
2022-08-04T10:47:53.502Z,29.03
2022-08-04T10:48:52.479Z,29.66
2022-08-04T10:49:52.469Z,30.15
2022-08-04T10:50:56.889Z,32.67
2022-08-04T10:51:57.263Z,31.62
2022-08-04T10:52:53.442Z,30.96
2022-08-04T10:53:52.433Z,32.02
2022-08-04T10:54:52.429Z,31.34
2022-08-04T10:56:06.297Z,32.04
2022-08-04T10:56:56.791Z,31.65
2022-08-04T10:57:52.437Z,34.55
2022-08-04T10:58:52.393Z,31.46
2022-08-04T10:59:52.384Z,31.76
2022-08-04T11:00:53.357Z,31.96
2022-08-04T11:02:03.301Z,32.06
2022-08-04T11:02:53.388Z,35.93
2022-08-04T11:03:52.325Z,37.57
2022-08-04T11:04:52.350Z,37.26
2022-08-04T11:05:52.307Z,33.87
2022-08-04T11:06:52.308Z,31.94
2022-08-04T11:07:52.290Z,30.98
2022-08-04T11:08:52.276Z,31.65
2022-08-04T11:09:52.263Z,31.07
2022-08-04T11:10:52.281Z,33.99
2022-08-04T11:12:01.448Z,32.71
2022-08-04T11:12:53.234Z,33.59
2022-08-04T11:13:52.224Z,32.71
2022-08-04T11:14:52.223Z,30.98
2022-08-04T11:15:52.200Z,30.99
2022-08-04T11:16:52.211Z,31.16
2022-08-04T11:17:52.232Z,31.84
2022-08-04T11:18:52.170Z,32.44
2022-08-04T11:19:54.508Z,31.67
2022-08-04T11:20:53.156Z,34.09
2022-08-04T11:21:52.165Z,36.58
2022-08-04T11:22:52.147Z,32.52
2022-08-04T11:23:52.132Z,32.06
2022-08-04T11:24:52.172Z,31.57
2022-08-04T11:25:52.467Z,31.76
2022-08-04T11:26:52.106Z,31.57
2022-08-04T11:27:52.081Z,31.09
2022-08-04T11:29:03.309Z,30.79
2022-08-04T11:29:53.073Z,31.67
2022-08-04T11:30:52.065Z,31.49
2022-08-04T11:31:52.392Z,36.52
2022-08-04T11:32:52.030Z,35.36
2022-08-04T11:33:52.017Z,33.81
2022-08-04T11:34:52.851Z,31.97
2022-08-04T11:35:51.997Z,31.68
2022-08-04T11:36:52.006Z,31.41
2022-08-04T11:37:52.051Z,31.60
2022-08-04T11:38:52.486Z,33.25
2022-08-04T11:39:51.965Z,35.38
2022-08-04T11:41:02.767Z,33.25
2022-08-04T11:41:52.945Z,31.89
2022-08-04T11:42:51.927Z,32.57
2022-08-04T11:44:00.692Z,30.34
2022-08-04T11:44:52.898Z,31.70
2022-08-04T11:45:51.898Z,31.79
2022-08-04T11:46:51.899Z,31.78
2022-08-04T11:47:51.878Z,31.60
2022-08-04T11:48:51.873Z,31.02
2022-08-04T11:49:57.341Z,32.94
2022-08-04T11:50:54.007Z,32.84
2022-08-04T11:51:51.845Z,31.01
2022-08-04T11:52:51.820Z,31.50
2022-08-04T11:53:51.814Z,31.01
2022-08-04T11:54:52.825Z,32.18
2022-08-04T11:56:08.279Z,33.15
2022-08-04T11:56:52.835Z,34.22
2022-08-04T11:57:54.310Z,37.71
2022-08-04T11:58:51.758Z,41.49
2022-08-04T11:59:51.747Z,40.25
2022-08-04T12:00:51.741Z,39.18
2022-08-04T12:01:51.861Z,38.40
2022-08-04T12:02:51.754Z,36.18
2022-08-04T12:03:59.727Z,33.36
2022-08-04T12:04:52.698Z,31.32
2022-08-04T12:05:51.683Z,31.62
2022-08-04T12:07:04.570Z,32.49
2022-08-04T12:07:52.659Z,33.38
2022-08-04T12:08:51.721Z,31.52
2022-08-04T12:09:51.656Z,33.65
2022-08-04T12:10:51.637Z,31.81
2022-08-04T12:11:51.654Z,31.91
2022-08-04T12:12:51.617Z,32.12
2022-08-04T12:13:51.607Z,31.15
2022-08-04T12:14:51.630Z,32.10
2022-08-04T12:15:51.600Z,31.23
2022-08-04T12:16:51.589Z,31.62
2022-08-04T12:17:52.961Z,35.30
2022-08-04T12:18:52.507Z,32.10
2022-08-04T12:20:05.109Z,32.49
2022-08-04T12:20:52.583Z,33.75
2022-08-04T12:21:55.642Z,32.87
2022-08-04T12:22:52.542Z,32.86
2022-08-04T12:24:00.617Z,32.86
2022-08-04T12:24:52.479Z,30.34
2022-08-04T12:25:51.488Z,31.12
2022-08-04T12:26:51.522Z,30.13
2022-08-04T12:27:51.456Z,29.84
2022-08-04T12:29:09.605Z,29.27
2022-08-04T12:30:53.981Z,31.21
2022-08-04T12:31:00.535Z,31.49
2022-08-04T12:31:52.432Z,30.32
2022-08-04T12:32:53.802Z,30.62
2022-08-04T12:34:04.520Z,32.56
2022-08-04T12:34:52.377Z,31.87
2022-08-04T12:36:04.344Z,33.42
2022-08-04T12:36:52.378Z,34.19
2022-08-04T12:37:51.358Z,30.32
2022-08-04T12:38:51.478Z,30.13
2022-08-04T12:40:27.434Z,31.29
2022-08-04T12:40:52.320Z,30.71
2022-08-04T12:41:51.319Z,30.11
2022-08-04T12:42:56.159Z,31.49
2022-08-04T12:43:52.284Z,32.56
2022-08-04T12:44:51.321Z,32.94
2022-08-04T12:45:51.271Z,33.91
2022-08-04T12:46:51.274Z,32.75
2022-08-04T12:47:51.258Z,31.59
2022-08-04T12:48:51.241Z,32.26
2022-08-04T12:50:01.072Z,32.07
2022-08-04T12:50:52.254Z,31.68
2022-08-04T12:52:08.438Z,30.13
2022-08-04T12:53:02.047Z,31.39